createdAt,value
2018-08-13T00:00:06.880Z,1.80
2018-08-13T00:02:36.150Z,2.00
2018-08-13T00:05:05.929Z,1.90
2018-08-13T00:07:35.191Z,2.10
2018-08-13T00:10:05.215Z,2.13
2018-08-13T00:12:34.530Z,2.43
2018-08-13T00:15:03.863Z,2.20
2018-08-13T00:23:23.751Z,2.20
2018-08-13T00:25:53.009Z,2.13
2018-08-13T00:28:22.299Z,2.20
2018-08-13T00:30:51.561Z,2.07
2018-08-13T00:33:20.782Z,2.20
2018-08-13T00:35:50.175Z,2.37
2018-08-13T00:38:19.454Z,2.10
2018-08-13T00:40:48.706Z,2.40
2018-08-13T00:43:18.043Z,2.00
2018-08-13T00:45:47.226Z,2.20
2018-08-13T00:48:16.587Z,2.33
2018-08-13T00:50:45.891Z,2.20
2018-08-13T00:53:16.527Z,2.60
2018-08-13T00:55:45.774Z,2.10
2018-08-13T00:58:15.121Z,2.27
2018-08-13T01:00:44.475Z,2.53
2018-08-13T01:03:13.778Z,2.40
2018-08-13T01:05:43.059Z,2.13
2018-08-13T01:08:12.422Z,2.30
2018-08-13T01:10:41.718Z,2.10
2018-08-13T01:13:10.999Z,2.40
2018-08-13T01:15:40.360Z,2.03
2018-08-13T01:18:09.723Z,2.27
2018-08-13T01:20:39.021Z,2.37
2018-08-13T01:23:08.315Z,2.30
2018-08-13T01:25:37.546Z,1.90
2018-08-13T01:28:07.011Z,2.30
2018-08-13T01:30:36.247Z,2.27
2018-08-13T01:33:06.214Z,2.30
2018-08-13T01:35:35.391Z,2.20
2018-08-13T01:38:04.651Z,2.10
2018-08-13T01:40:33.943Z,2.60
2018-08-13T01:43:03.274Z,2.37
2018-08-13T01:45:32.568Z,2.20
2018-08-13T01:48:01.868Z,2.70
2018-08-13T01:50:31.111Z,2.00
2018-08-13T01:53:00.476Z,2.37
2018-08-13T01:55:29.801Z,2.30
2018-08-13T01:57:59.310Z,2.40
2018-08-13T02:00:28.540Z,2.33
2018-08-13T02:02:57.845Z,2.40
2018-08-13T02:05:27.138Z,2.40
2018-08-13T02:07:56.527Z,2.30
2018-08-13T02:10:26.736Z,2.20
2018-08-13T02:12:56.088Z,2.30
2018-08-13T02:15:25.307Z,2.80
2018-08-13T02:17:54.539Z,2.50
2018-08-13T02:20:23.704Z,2.40
2018-08-13T02:22:52.995Z,2.43
2018-08-13T02:25:22.644Z,2.27
2018-08-13T02:27:51.846Z,2.40
2018-08-13T02:30:21.525Z,2.37
2018-08-13T02:32:50.803Z,2.33
2018-08-13T02:35:20.071Z,2.60
2018-08-13T02:37:49.291Z,2.60
2018-08-13T02:40:18.567Z,2.80
2018-08-13T02:42:47.817Z,2.40
2018-08-13T02:45:17.117Z,2.60
2018-08-13T02:47:46.389Z,2.60
2018-08-13T02:50:15.740Z,2.67
2018-08-13T02:52:45.136Z,2.70
2018-08-13T02:55:14.520Z,2.60
2018-08-13T02:57:43.908Z,2.90
2018-08-13T03:00:13.624Z,2.77
2018-08-13T03:02:43.017Z,2.70
2018-08-13T03:14:06.708Z,2.60
2018-08-13T03:16:36.052Z,2.50
2018-08-13T03:19:05.867Z,2.57
2018-08-13T03:21:35.141Z,2.70
2018-08-13T03:24:04.692Z,2.60
2018-08-13T03:26:34.027Z,2.50
2018-08-13T03:29:03.447Z,2.80
2018-08-13T03:31:32.679Z,2.77
2018-08-13T03:34:02.068Z,3.07
2018-08-13T03:36:31.283Z,2.37
2018-08-13T03:39:00.646Z,2.70
2018-08-13T03:41:30.212Z,2.80
2018-08-13T03:43:59.451Z,2.37
2018-08-13T03:46:28.727Z,2.83
2018-08-13T03:48:58.103Z,2.60
2018-08-13T03:51:27.416Z,2.57
2018-08-13T03:53:56.752Z,3.07
2018-08-13T03:56:32.471Z,2.97
2018-08-13T03:59:01.785Z,2.77
2018-08-13T04:01:31.180Z,2.90
2018-08-13T04:04:00.588Z,2.70
2018-08-13T04:06:29.910Z,2.77
2018-08-13T04:08:59.403Z,2.50
2018-08-13T04:11:28.800Z,2.63
2018-08-13T04:13:58.103Z,2.70
2018-08-13T04:16:27.398Z,2.90
2018-08-13T04:18:56.726Z,2.77
2018-08-13T04:21:25.931Z,2.60
2018-08-13T04:23:55.508Z,2.70
2018-08-13T04:26:24.907Z,2.70
2018-08-13T04:28:54.152Z,2.77
2018-08-13T04:31:23.490Z,2.77
2018-08-13T04:33:52.724Z,2.70
2018-08-13T04:36:22.020Z,2.80
2018-08-13T04:38:51.387Z,2.70
2018-08-13T04:41:20.691Z,2.70
2018-08-13T04:43:50.279Z,2.73
2018-08-13T04:46:19.643Z,2.50
2018-08-13T04:48:48.923Z,2.67
2018-08-13T04:51:18.257Z,2.90
2018-08-13T04:53:47.537Z,2.60
2018-08-13T04:56:16.889Z,2.70
2018-08-13T04:58:46.173Z,2.87
2018-08-13T05:01:15.478Z,2.70
2018-08-13T05:03:44.876Z,2.80
2018-08-13T05:06:14.278Z,2.70
2018-08-13T05:08:43.812Z,2.70
2018-08-13T05:11:13.103Z,2.70
2018-08-13T05:13:42.363Z,2.83
2018-08-13T05:16:11.684Z,3.20
2018-08-13T05:18:40.847Z,3.00
2018-08-13T05:21:10.127Z,2.87
2018-08-13T05:23:39.393Z,3.00
2018-08-13T05:26:08.668Z,3.17
2018-08-13T05:28:37.991Z,3.10
2018-08-13T05:31:07.272Z,3.40
2018-08-13T05:33:36.539Z,3.40
2018-08-13T05:36:06.140Z,3.73
2018-08-13T05:38:35.401Z,3.20
2018-08-13T05:41:04.718Z,3.70
2018-08-13T05:43:34.024Z,3.43
2018-08-13T05:46:03.339Z,3.60
2018-08-13T05:48:33.039Z,3.70
2018-08-13T05:51:02.587Z,3.33
2018-08-13T05:53:31.827Z,3.43
2018-08-13T05:56:01.056Z,3.10
2018-08-13T05:58:30.252Z,3.63
2018-08-13T06:00:59.599Z,3.30
2018-08-13T06:03:28.888Z,3.57
2018-08-13T06:05:58.242Z,3.20
2018-08-13T06:08:27.521Z,3.40
2018-08-13T06:10:56.771Z,3.50
2018-08-13T06:13:26.036Z,3.33
2018-08-13T06:15:55.355Z,2.63
2018-08-13T06:18:25.156Z,3.30
2018-08-13T06:20:54.543Z,3.17
2018-08-13T06:23:23.871Z,2.97
2018-08-13T06:25:53.119Z,2.90
2018-08-13T06:28:22.371Z,2.93
2018-08-13T06:30:51.744Z,2.80
2018-08-13T06:33:21.063Z,3.10
2018-08-13T06:35:50.363Z,2.97
2018-08-13T06:38:19.603Z,3.30
2018-08-13T06:40:48.814Z,2.83
2018-08-13T06:43:18.151Z,2.90
2018-08-13T06:45:47.427Z,2.67
2018-08-13T06:48:16.734Z,2.77
2018-08-13T06:50:45.992Z,2.87
2018-08-13T06:53:15.426Z,2.43
2018-08-13T06:55:44.672Z,2.70
2018-08-13T06:58:14.015Z,3.10
2018-08-13T07:00:43.271Z,2.70
2018-08-13T07:03:12.589Z,2.60
2018-08-13T07:05:41.832Z,2.70
2018-08-13T07:08:11.607Z,2.90
2018-08-13T07:10:40.966Z,2.67
2018-08-13T07:13:10.330Z,2.70
2018-08-13T07:15:39.653Z,3.27
2018-08-13T07:18:08.960Z,2.77
2018-08-13T07:20:38.444Z,2.77
2018-08-13T07:23:07.888Z,3.07
2018-08-13T07:25:37.254Z,2.40
2018-08-13T07:28:06.697Z,2.77
2018-08-13T07:30:35.996Z,2.50
2018-08-13T07:33:05.367Z,2.70
2018-08-13T07:35:34.591Z,2.60
2018-08-13T07:38:03.936Z,2.47
2018-08-13T07:40:33.264Z,2.77
2018-08-13T07:43:02.714Z,2.40
2018-08-13T07:45:32.108Z,2.40
2018-08-13T07:48:01.444Z,2.20
2018-08-13T07:50:30.814Z,2.20
2018-08-13T07:53:00.223Z,2.00
2018-08-13T07:55:29.701Z,2.10
2018-08-13T07:57:59.077Z,2.00
2018-08-13T08:00:28.340Z,2.20
2018-08-13T08:02:58.448Z,2.30
2018-08-13T08:05:28.302Z,2.00
2018-08-13T08:07:57.944Z,2.17
2018-08-13T08:10:27.872Z,1.87
2018-08-13T08:12:57.562Z,2.00
2018-08-13T08:15:27.135Z,2.10
2018-08-13T08:17:57.007Z,1.93
2018-08-13T08:20:26.532Z,1.80
2018-08-13T08:22:56.442Z,1.90
2018-08-13T08:25:25.736Z,1.60
2018-08-13T08:27:55.020Z,1.80
2018-08-13T08:30:24.547Z,1.90
2018-08-13T08:32:54.994Z,2.00
2018-08-13T08:35:24.451Z,1.60
2018-08-13T08:37:53.801Z,2.03
2018-08-13T08:40:23.779Z,1.80
2018-08-13T08:42:53.587Z,1.70
2018-08-13T08:45:26.991Z,1.70
2018-08-13T08:47:57.613Z,1.73
2018-08-13T08:50:27.724Z,1.90
2018-08-13T08:52:57.753Z,2.00
2018-08-13T08:55:27.035Z,1.83
2018-08-13T08:57:56.439Z,1.93
2018-08-13T09:00:25.789Z,1.70
2018-08-13T09:02:55.219Z,1.70
2018-08-13T09:05:24.523Z,1.73
2018-08-13T09:07:53.883Z,1.90
2018-08-13T09:10:23.198Z,1.60
2018-08-13T09:12:52.495Z,9.83
2018-08-13T09:15:33.437Z,1.93
2018-08-13T09:18:13.604Z,2.00
2018-08-13T09:20:53.731Z,2.22
2018-08-13T09:23:33.921Z,2.30
2018-08-13T09:26:13.987Z,2.15
2018-08-13T09:28:54.054Z,2.40
2018-08-13T09:31:38.156Z,2.40
2018-08-13T09:34:18.203Z,2.20
2018-08-13T09:36:47.656Z,2.17
2018-08-13T09:39:16.880Z,2.30
2018-08-13T09:41:46.223Z,2.27
2018-08-13T09:44:15.468Z,2.27
2018-08-13T09:46:44.872Z,2.40
2018-08-13T09:49:14.151Z,2.22
2018-08-13T09:51:43.555Z,2.20
2018-08-13T09:54:12.787Z,2.40
2018-08-13T09:56:42.081Z,2.20
2018-08-13T09:59:11.466Z,2.42
2018-08-13T10:01:40.739Z,1.90
2018-08-13T10:04:10.196Z,2.37
2018-08-13T10:06:39.636Z,2.25
2018-08-13T10:09:09.097Z,2.25
2018-08-13T10:11:38.451Z,2.22
2018-08-13T10:14:07.759Z,1.80
2018-08-13T10:16:36.976Z,2.00
2018-08-13T10:19:06.299Z,2.20
2018-08-13T10:21:35.611Z,2.37
2018-08-13T10:24:04.962Z,2.08
2018-08-13T10:26:34.290Z,1.90
2018-08-13T10:29:03.659Z,2.05
2018-08-13T10:31:32.960Z,1.98
2018-08-13T10:34:02.833Z,1.98
2018-08-13T10:36:32.176Z,1.90
2018-08-13T10:39:01.493Z,1.90
2018-08-13T10:41:30.783Z,1.87
2018-08-13T10:43:59.983Z,1.80
2018-08-13T10:46:29.384Z,2.00
2018-08-13T10:48:58.723Z,1.90
2018-08-13T10:51:28.008Z,1.82
2018-08-13T10:53:57.371Z,1.70
2018-08-13T10:56:26.580Z,2.00
2018-08-13T10:58:56.024Z,2.12
2018-08-13T11:01:25.360Z,1.92
2018-08-13T11:03:55.359Z,2.12
2018-08-13T11:06:24.711Z,2.60
2018-08-13T11:08:54.058Z,2.35
2018-08-13T11:11:23.444Z,2.15
2018-08-13T11:13:52.983Z,2.30
2018-08-13T11:16:22.370Z,2.30
2018-08-13T11:18:51.692Z,2.37
2018-08-13T11:21:20.896Z,2.00
2018-08-13T11:23:50.254Z,2.42
2018-08-13T11:26:19.461Z,2.30
2018-08-13T11:28:48.798Z,2.63
2018-08-13T11:31:18.216Z,2.30
2018-08-13T11:33:47.451Z,2.13
2018-08-13T11:36:16.672Z,2.50
2018-08-13T11:38:46.085Z,2.37
2018-08-13T11:41:15.336Z,2.30
2018-08-13T11:43:44.567Z,2.53
2018-08-13T11:46:13.870Z,2.73
2018-08-13T11:48:43.238Z,2.27
2018-08-13T11:51:12.446Z,2.40
2018-08-13T11:53:41.689Z,2.50
2018-08-13T11:56:11.124Z,2.30
2018-08-13T11:58:40.811Z,2.40
2018-08-13T12:01:10.074Z,2.20
2018-08-13T12:03:39.423Z,2.23
2018-08-13T12:06:08.666Z,2.27
2018-08-13T12:08:38.191Z,2.10
2018-08-13T12:11:07.517Z,2.33
2018-08-13T12:13:36.987Z,2.20
2018-08-13T12:16:06.422Z,2.03
2018-08-13T12:18:35.700Z,2.20
2018-08-13T12:21:05.040Z,1.80
2018-08-13T12:23:34.379Z,1.80
2018-08-13T12:26:03.698Z,1.90
2018-08-13T12:28:33.038Z,1.87
2018-08-13T12:31:04.023Z,1.80
2018-08-13T12:33:33.607Z,2.00
2018-08-13T12:36:03.407Z,2.10
2018-08-13T12:38:33.600Z,2.00
2018-08-13T12:41:02.936Z,1.70
2018-08-13T12:43:32.680Z,2.00
2018-08-13T12:46:01.979Z,2.00
2018-08-13T12:48:31.434Z,2.10
2018-08-13T12:51:00.679Z,2.20
2018-08-13T12:53:30.020Z,1.93
2018-08-13T12:55:59.254Z,2.00
2018-08-13T12:58:28.539Z,2.00
2018-08-13T13:00:59.866Z,2.03
2018-08-13T13:03:29.563Z,2.10
2018-08-13T13:05:58.819Z,2.33
2018-08-13T13:08:28.023Z,2.10
2018-08-13T13:10:57.432Z,1.97
2018-08-13T13:13:26.731Z,1.73
2018-08-13T13:15:56.070Z,2.00
2018-08-13T13:18:25.383Z,2.00
2018-08-13T13:20:54.771Z,1.87
2018-08-13T13:23:24.072Z,2.30
2018-08-13T13:25:53.443Z,2.13
2018-08-13T13:28:22.714Z,1.93
2018-08-13T13:30:51.994Z,2.10
2018-08-13T13:33:21.347Z,2.13
2018-08-13T13:35:50.615Z,2.10
2018-08-13T13:38:19.920Z,1.90
2018-08-13T13:40:49.147Z,2.10
2018-08-13T13:43:18.412Z,1.80
2018-08-13T13:45:47.798Z,2.30
2018-08-13T13:48:17.172Z,1.87
2018-08-13T13:50:46.540Z,1.87
2018-08-13T13:53:15.809Z,1.97
2018-08-13T13:55:45.186Z,1.97
2018-08-13T13:58:14.626Z,1.80
2018-08-13T14:00:43.904Z,2.27
2018-08-13T14:03:13.175Z,1.83
2018-08-13T14:05:42.541Z,2.20
2018-08-13T14:08:11.907Z,1.97
2018-08-13T14:10:41.145Z,2.30
2018-08-13T14:13:10.603Z,1.90
2018-08-13T14:15:39.936Z,2.00
2018-08-13T14:18:09.315Z,1.87
2018-08-13T14:20:38.671Z,1.87
2018-08-13T14:23:08.039Z,2.00
2018-08-13T14:25:37.332Z,2.03
2018-08-13T14:28:06.746Z,1.80
2018-08-13T14:30:36.040Z,1.87
2018-08-13T14:33:06.183Z,1.77
2018-08-13T14:35:35.531Z,2.10
2018-08-13T14:38:04.956Z,2.10
2018-08-13T14:40:34.343Z,2.00
2018-08-13T14:43:03.695Z,1.77
2018-08-13T14:45:33.569Z,1.80
2018-08-13T14:48:02.831Z,2.10
2018-08-13T14:50:32.217Z,1.90
2018-08-13T14:53:01.536Z,1.80
2018-08-13T14:55:30.832Z,2.00
2018-08-13T14:58:00.148Z,2.70
2018-08-13T15:00:32.535Z,2.10
2018-08-13T15:03:02.584Z,2.17
2018-08-13T15:05:31.949Z,1.87
2018-08-13T15:08:01.354Z,2.00
2018-08-13T15:10:30.687Z,1.80
2018-08-13T15:13:00.088Z,1.60
2018-08-13T15:15:29.341Z,2.03
2018-08-13T15:17:58.671Z,2.10
2018-08-13T15:20:29.469Z,2.00
2018-08-13T15:22:58.775Z,2.10
2018-08-13T15:25:28.655Z,2.17
2018-08-13T15:27:58.133Z,1.90
2018-08-13T15:30:27.850Z,2.30
2018-08-13T15:32:57.203Z,2.13
2018-08-13T15:35:26.580Z,2.20
2018-08-13T15:37:55.958Z,2.30
2018-08-13T15:40:25.284Z,2.20
2018-08-13T15:42:54.667Z,1.93
2018-08-13T15:45:24.671Z,2.07
2018-08-13T15:47:54.197Z,2.40
2018-08-13T15:50:24.011Z,1.90
2018-08-13T15:52:54.144Z,2.10
2018-08-13T15:55:23.547Z,2.10
2018-08-13T15:57:52.961Z,2.90
2018-08-13T16:00:25.251Z,2.10
2018-08-13T16:02:54.934Z,2.03
2018-08-13T16:05:24.251Z,2.00
2018-08-13T16:07:54.071Z,2.17
2018-08-13T16:10:23.285Z,2.20
2018-08-13T16:12:53.578Z,1.80
2018-08-13T16:15:22.911Z,1.93
2018-08-13T16:17:52.260Z,2.80
2018-08-13T16:20:21.638Z,3.30
2018-08-13T16:22:51.009Z,2.10
2018-08-13T16:25:20.404Z,2.10
2018-08-13T16:27:49.952Z,2.30
2018-08-13T16:30:26.530Z,2.40
2018-08-13T16:32:55.812Z,2.00
2018-08-13T16:35:25.587Z,2.20
2018-08-13T16:37:55.377Z,2.17
2018-08-13T16:40:24.856Z,2.63
2018-08-13T16:42:54.323Z,2.40
2018-08-13T16:45:24.015Z,2.53
2018-08-13T16:47:53.815Z,2.50
2018-08-13T16:50:26.067Z,2.27
2018-08-13T16:52:56.108Z,2.00
2018-08-13T16:55:25.992Z,2.20
2018-08-13T16:57:55.571Z,1.80
2018-08-13T17:00:26.919Z,2.20
2018-08-13T17:02:56.768Z,2.50
2018-08-13T17:05:26.276Z,2.30
2018-08-13T17:07:55.560Z,2.00
2018-08-13T17:10:26.230Z,2.10
2018-08-13T17:12:56.188Z,2.00
2018-08-13T17:15:26.361Z,1.90
2018-08-13T17:17:57.339Z,1.80
2018-08-13T17:20:30.070Z,1.90
2018-08-13T17:22:59.471Z,1.83
2018-08-13T17:25:29.868Z,1.90
2018-08-13T17:27:59.361Z,1.73
2018-08-13T17:30:28.726Z,1.87
2018-08-13T17:32:59.683Z,1.80
2018-08-13T17:35:31.478Z,1.83
2018-08-13T17:38:01.619Z,1.80
2018-08-13T17:40:32.327Z,1.90
2018-08-13T17:43:02.041Z,1.90
2018-08-13T17:45:31.515Z,2.33
2018-08-13T17:48:01.504Z,1.80
2018-08-13T17:53:25.768Z,2.10
2018-08-13T17:55:58.250Z,2.10
2018-08-13T17:58:28.955Z,1.90
2018-08-13T18:00:59.218Z,2.00
2018-08-13T18:03:28.759Z,2.10
2018-08-13T18:05:58.029Z,2.07
2018-08-13T18:08:27.510Z,1.90
2018-08-13T18:10:56.831Z,1.70
2018-08-13T18:13:26.137Z,1.83
2018-08-13T18:15:55.463Z,2.13
2018-08-13T18:18:24.748Z,2.00
2018-08-13T18:20:54.111Z,1.90
2018-08-13T18:23:23.543Z,2.07
2018-08-13T18:25:52.837Z,2.13
2018-08-13T18:28:22.130Z,2.10
2018-08-13T18:30:51.423Z,2.43
2018-08-13T18:33:20.760Z,2.20
2018-08-13T18:35:50.076Z,2.10
2018-08-13T18:38:19.495Z,2.50
2018-08-13T18:40:48.832Z,1.93
2018-08-13T18:43:18.205Z,2.00
2018-08-13T18:45:47.535Z,2.37
2018-08-13T18:48:16.831Z,2.07
2018-08-13T18:50:46.058Z,2.13
2018-08-13T18:53:15.370Z,2.20
2018-08-13T18:55:44.665Z,2.13
2018-08-13T18:58:16.316Z,1.90
2018-08-13T19:00:50.100Z,2.27
2018-08-13T19:03:19.535Z,2.17
2018-08-13T19:05:48.898Z,2.80
2018-08-13T19:08:35.432Z,2.80
2018-08-13T19:11:04.816Z,2.60
2018-08-13T19:13:34.563Z,2.13
2018-08-13T19:16:04.540Z,2.20
2018-08-13T19:18:34.025Z,1.90
2018-08-13T19:21:03.402Z,2.07
2018-08-13T19:23:34.075Z,2.40
2018-08-13T19:26:03.518Z,1.97
2018-08-13T19:28:32.956Z,2.47
2018-08-13T19:31:03.002Z,2.37
2018-08-13T19:33:32.368Z,2.40
2018-08-13T19:36:01.835Z,2.40
2018-08-13T19:38:31.250Z,2.60
2018-08-13T19:41:00.687Z,2.77
2018-08-13T19:43:30.097Z,2.87
2018-08-13T19:45:59.648Z,2.93
2018-08-13T19:48:30.560Z,3.20
2018-08-13T19:51:00.211Z,2.63
2018-08-13T19:53:30.187Z,2.40
2018-08-13T19:55:59.936Z,2.87
2018-08-13T19:58:29.229Z,2.60
2018-08-13T20:00:58.647Z,2.93
2018-08-13T20:03:28.043Z,3.47
2018-08-13T20:05:57.474Z,3.07
2018-08-13T20:08:26.757Z,3.50
2018-08-13T20:10:56.073Z,3.53
2018-08-13T20:13:25.403Z,3.40
2018-08-13T20:15:54.804Z,3.30
2018-08-13T20:18:25.376Z,3.60
2018-08-13T20:20:54.628Z,3.53
2018-08-13T20:23:24.019Z,3.63
2018-08-13T20:25:53.364Z,3.60
2018-08-13T20:28:22.697Z,4.00
2018-08-13T20:30:51.987Z,3.90
2018-08-13T20:33:21.291Z,4.20
2018-08-13T20:35:50.728Z,4.37
2018-08-13T20:38:19.975Z,4.13
2018-08-13T20:40:49.311Z,3.77
2018-08-13T20:43:18.871Z,3.80
2018-08-13T20:45:48.123Z,4.00
2018-08-13T20:48:17.463Z,3.50
2018-08-13T20:50:46.774Z,3.90
2018-08-13T20:53:16.071Z,4.40
2018-08-13T20:55:45.431Z,4.53
2018-08-13T20:58:15.171Z,4.20
2018-08-13T21:00:44.447Z,4.97
2018-08-13T21:03:13.760Z,4.43
2018-08-13T21:05:43.080Z,4.20
2018-08-13T21:08:12.400Z,4.47
2018-08-13T21:10:41.803Z,4.57
2018-08-13T21:13:11.083Z,4.53
2018-08-13T21:15:40.374Z,3.87
2018-08-13T21:18:09.786Z,4.07
2018-08-13T21:20:39.199Z,4.60
2018-08-13T21:23:08.616Z,4.20
2018-08-13T21:25:37.979Z,4.53
2018-08-13T21:28:07.344Z,4.67
2018-08-13T21:30:36.627Z,4.53
2018-08-13T21:33:05.884Z,4.30
2018-08-13T21:35:35.247Z,4.23
2018-08-13T21:38:04.666Z,3.67
2018-08-13T21:40:34.039Z,4.13
2018-08-13T21:43:03.683Z,4.20
2018-08-13T21:45:33.070Z,4.50
2018-08-13T21:48:02.352Z,4.10
2018-08-13T21:50:31.596Z,4.10
2018-08-13T21:53:00.899Z,4.30
2018-08-13T21:55:30.343Z,3.97
2018-08-13T21:57:59.749Z,4.17
2018-08-13T22:00:31.580Z,4.37
2018-08-13T22:03:02.906Z,4.43
2018-08-13T22:05:32.222Z,4.77
2018-08-13T22:08:01.500Z,4.23
2018-08-13T22:10:30.830Z,4.00
2018-08-13T22:13:00.144Z,4.00
2018-08-13T22:15:30.711Z,4.00
2018-08-13T22:18:03.228Z,5.00
2018-08-13T22:20:34.645Z,4.27
2018-08-13T22:23:05.027Z,4.70
2018-08-13T22:25:37.387Z,4.50
2018-08-13T22:28:07.623Z,4.60
2018-08-13T22:30:37.091Z,4.70
2018-08-13T22:33:07.475Z,4.17
2018-08-13T22:35:36.834Z,4.30
2018-08-13T22:38:07.195Z,4.23
2018-08-13T22:40:37.040Z,4.47
2018-08-13T22:43:06.828Z,4.33
2018-08-13T22:45:36.116Z,3.80
2018-08-13T22:48:05.892Z,4.47
2018-08-13T22:50:35.164Z,4.43
2018-08-13T22:53:04.532Z,4.37
2018-08-13T22:55:33.928Z,4.03
2018-08-13T22:58:03.348Z,4.53
2018-08-13T23:00:36.041Z,5.23
2018-08-13T23:03:05.587Z,5.67
2018-08-13T23:05:34.879Z,5.00
2018-08-13T23:08:04.332Z,4.50
2018-08-13T23:10:33.601Z,3.93
2018-08-13T23:13:02.955Z,3.77
2018-08-13T23:15:32.256Z,3.73
2018-08-13T23:18:01.554Z,3.40
2018-08-13T23:20:30.811Z,3.90
2018-08-13T23:23:02.256Z,4.03
2018-08-13T23:25:32.635Z,3.60
2018-08-13T23:28:02.984Z,3.40
2018-08-13T23:30:32.410Z,3.90
2018-08-13T23:33:02.284Z,4.33
2018-08-13T23:35:32.187Z,4.20
2018-08-13T23:38:01.568Z,4.07
2018-08-13T23:40:31.135Z,4.20
2018-08-13T23:43:00.579Z,4.30
2018-08-13T23:45:32.315Z,3.80
2018-08-13T23:48:01.788Z,3.87
2018-08-13T23:50:31.119Z,4.20
2018-08-13T23:53:01.531Z,3.90
2018-08-13T23:55:35.854Z,4.40
2018-08-13T23:58:07.054Z,4.43
